Have a Safe July 4th! 

Flight Track Log - Related Links

Times and Time Zones

All times are in EDT time to prevent confusion due to time zone crossing. See the N531QS flight status page for this flight to view local times or setup timezone preferences in your user account.

Time Position Orientation Groundspeed Altitude Reporting Facility
EDT Latitude Longitude Course Direction KTS MPH feet Rate Location/Type
Sat 04:51:17 PM 39.6167 -104.8833 258° West 231 266 8,200  Level Denver TRACON
Sat 04:52:17 PM 39.6000 -104.9833 258° West 258 297 11,000 2,447 Climbing Denver TRACON
Sat 04:53:00 PM 39.6236 -105.0481 295° West 291 335 12,400 1,886 Climbing Denver Center
Sat 04:54:02 PM 39.6558 -105.1683 289° West 351 404 14,300 2,419 Climbing Denver Center
Sat 04:55:04 PM 39.6936 -105.3003 290° West 387 445 17,400 2,855 Climbing Denver Center
Sat 04:56:06 PM 39.7286 -105.4461 287° West 396 456 20,200 2,244 Climbing Denver Center
Sat 04:57:07 PM 39.7147 -105.5603 261° West 413 475 22,000 1,805 Climbing Denver Center
Sat 04:58:09 PM 39.6875 -105.7603 260° West 433 498 23,900 1,839 Climbing Denver Center
Sat 04:59:11 PM 39.6739 -105.8953 263° West 421 484 25,800 2,095 Climbing Denver Center
Sat 05:00:15 PM 39.6531 -106.0892 262° West 451 519 28,300 2,476 Climbing Denver Center
Sat 05:01:17 PM 39.6333 -106.2553 261° West 457 526 31,000 2,613 Climbing Denver Center
Sat 05:02:19 PM 39.5978 -106.4083 253° West 443 510 33,700 2,419 Climbing Denver Center
Sat 05:03:21 PM 39.5514 -106.5472 247° West 443 510 36,000 1,113 Climbing Denver Center
Sat 05:04:23 PM 39.4983 -106.7083 247° West 437 503 36,000  Level Denver Center
Sat 05:05:24 PM 39.4525 -106.8478 247° West 439 505 36,000  Level Denver Center
Sat 05:06:26 PM 39.4175 -106.9919 253° West 437 503 36,000  Level Denver Center
Sat 05:07:28 PM 39.3919 -107.1386 257° West 436 502 36,000 194 Level Denver Center
Sat 05:08:30 PM 39.3533 -107.3314 256° West 435 501 36,400 581 Climbing Denver Center
Sat 05:09:32 PM 39.3256 -107.4772 256° West 436 502 37,200 968 Climbing Denver Center
Sat 05:10:34 PM 39.2936 -107.6431 256° West 426 490 38,400 1,306 Climbing Denver Center
Sat 05:11:36 PM 39.2642 -107.7878 255° West 431 496 39,900 774 Climbing Denver Center
Sat 05:12:38 PM 39.2353 -107.9311 255° West 431 496 40,000 49 Climbing Denver Center
Sat 05:13:39 PM 39.2025 -108.0981 256° West 431 496 40,000  Level Denver Center
Sat 05:14:41 PM 39.1739 -108.2419 256° West 431 496 40,000  Level Denver Center
Sat 05:15:43 PM 39.1369 -108.4142 255° West 449 517 40,000  Level Denver Center
Sat 05:16:45 PM 39.1092 -108.5625 256° West 454 522 40,000  Level Denver Center
Sat 05:17:47 PM 39.0714 -108.7319 254° West 439 505 40,000  Level Denver Center
Sat 05:18:49 PM 39.0464 -108.8789 258° West 436 502 40,000  Level Denver Center
Sat 05:19:51 PM 39.0247 -109.0258 259° West 436 502 40,000  Level Denver Center
Sat 05:20:53 PM 38.9989 -109.1983 259° West 437 503 40,000  Level Denver Center
Sat 05:21:54 PM 38.9772 -109.3428 259° West 431 496 40,000  Level Denver Center
Sat 05:22:56 PM 38.9517 -109.5156 259° West 439 505 40,000  Level Denver Center
Sat 05:23:58 PM 38.9289 -109.6631 259° West 438 504 40,000  Level Denver Center
Sat 05:25:00 PM 38.9008 -109.8342 258° West 438 504 40,000  Level Denver Center
Sat 05:26:01 PM 38.8794 -109.9839 260° West 440 506 40,000  Level Salt Lake Center
Sat 05:27:03 PM 38.8556 -110.1319 258° West 442 509 40,000  Level Salt Lake Center
Sat 05:28:05 PM 38.8292 -110.3058 259° West 444 511 40,000  Level Salt Lake Center
Sat 05:29:07 PM 38.8053 -110.4542 258° West 444 511 40,000  Level Salt Lake Center
Sat 05:30:09 PM 38.7775 -110.6247 258° West 438 504 40,000  Level Salt Lake Center
Sat 05:31:11 PM 38.7531 -110.7722 258° West 441 507 40,000  Level Salt Lake Center
Sat 05:32:13 PM 38.7264 -110.9358 258° West 445 512 40,000  Level Salt Lake Center
Sat 05:33:15 PM 38.7017 -111.0892 258° West 443 510 40,000  Level Salt Lake Center
Sat 05:34:17 PM 38.6750 -111.2433 258° West 444 511 40,000  Level Salt Lake Center
Sat 05:35:19 PM 38.6492 -111.3969 258° West 444 511 40,000  Level Salt Lake Center
Sat 05:36:21 PM 38.6183 -111.5833 258° West 446 513 40,000  Level Salt Lake Center
Sat 05:37:23 PM 38.5906 -111.7372 257° West 446 513 40,000  Level Salt Lake Center
Sat 05:38:25 PM 38.5642 -111.8908 258° West 445 512 40,000  Level Salt Lake Center
Sat 05:39:27 PM 38.5369 -112.0447 257° West 446 513 40,000  Level Salt Lake Center
Sat 05:40:29 PM 38.5103 -112.1994 258° West 447 514 40,000  Level Salt Lake Center
Sat 05:41:31 PM 38.4819 -112.3531 257° West 446 513 40,000  Level Salt Lake Center
Sat 05:42:33 PM 38.4492 -112.5364 257° West 445 512 40,000  Level Salt Lake Center
Sat 05:43:35 PM 38.4217 -112.6894 257° West 445 512 40,000  Level Salt Lake Center
Sat 05:44:37 PM 38.3933 -112.8394 256° West 440 506 40,000  Level Salt Lake Center
Sat 05:45:39 PM 38.3653 -112.9925 257° West 444 511 40,000  Level Salt Lake Center
Sat 05:46:40 PM 38.3506 -113.1461 263° West 440 506 40,000  Level Salt Lake Center
Sat 05:47:42 PM 38.3375 -113.3319 265° West 442 509 40,000  Level Salt Lake Center
Sat 05:48:44 PM 38.3250 -113.4889 264° West 446 513 40,000  Level Salt Lake Center
Sat 05:49:46 PM 38.3125 -113.6444 264° West 445 512 40,000  Level Salt Lake Center
Sat 05:50:48 PM 38.3011 -113.8006 265° West 444 511 40,000  Level Salt Lake Center
Sat 05:51:50 PM 38.2881 -113.9567 264° West 447 514 40,000  Level Salt Lake Center
Sat 05:52:52 PM 38.2750 -114.1125 264° West 445 512 40,000  Level Salt Lake Center
Sat 05:53:54 PM 38.2592 -114.3022 264° West 449 517 40,000  Level Salt Lake Center
Sat 05:54:56 PM 38.2453 -114.4592 264° West 449 517 40,000  Level Salt Lake Center
Sat 05:55:57 PM 38.2378 -114.6142 267° West 444 511 40,000  Level Salt Lake Center
Sat 05:56:59 PM 38.2283 -114.7697 266° West 445 512 40,000  Level Salt Lake Center
Sat 05:58:01 PM 38.2183 -114.9275 265° West 449 517 40,000  Level Salt Lake Center
Sat 05:59:03 PM 38.2078 -115.0833 265° West 444 511 40,000  Level Salt Lake Center
Sat 06:00:04 PM 38.1956 -115.2736 265° West 450 518 40,000  Level Salt Lake Center
Sat 06:01:07 PM 38.1850 -115.4236 265° West 448 516 40,000  Level Salt Lake Center
Sat 06:02:08 PM 38.1744 -115.5794 265° West 444 511 40,000  Level Salt Lake Center
Sat 06:03:10 PM 38.1631 -115.7383 265° West 450 518 40,000  Level Salt Lake Center
Sat 06:04:11 PM 38.1517 -115.8972 265° West 452 520 40,000  Level Salt Lake Center
Sat 06:05:13 PM 38.1406 -116.0561 265° West 452 520 40,000  Level Salt Lake Center
Sat 06:06:15 PM 38.1253 -116.2447 264° West 448 516 40,000  Level Salt Lake Center
Sat 06:07:17 PM 38.1136 -116.4039 265° West 452 520 40,000  Level Salt Lake Center
Sat 06:08:19 PM 38.1019 -116.5614 265° West 450 518 40,000  Level Salt Lake Center
Sat 06:09:11 PM 38.0925 -116.6864 265° West 446 513 40,000  Level Oakland Center
Sat 06:10:12 PM 38.0778 -116.8439 263° West 448 516 40,000  Level Oakland Center
Sat 06:11:14 PM 38.0625 -117.0050 263° West 455 524 40,000  Level Oakland Center
Sat 06:12:15 PM 38.0464 -117.1694 263° West 457 526 40,000  Level Oakland Center
Sat 06:13:16 PM 38.0306 -117.3369 263° West 464 534 40,000  Level Oakland Center
Sat 06:14:17 PM 38.0161 -117.4989 264° West 460 529 40,000  Level Oakland Center
Sat 06:15:18 PM 38.0006 -117.6603 263° West 460 529 40,000  Level Oakland Center
Sat 06:16:19 PM 37.9836 -117.8208 262° West 459 528 40,000  Level Oakland Center
Sat 06:17:20 PM 37.9653 -118.0144 263° West 461 531 40,000  Level Oakland Center
Sat 06:18:21 PM 37.9483 -118.1736 262° West 457 526 40,000  Level Oakland Center
Sat 06:19:22 PM 37.9308 -118.3344 262° West 460 529 40,000  Level Oakland Center
Sat 06:20:23 PM 37.9150 -118.4956 263° West 460 529 40,000  Level Oakland Center
Sat 06:21:24 PM 37.8978 -118.6567 262° West 460 529 40,000  Level Oakland Center
Sat 06:22:26 PM 37.8789 -118.8175 262° West 463 533 40,000  Level Oakland Center
Sat 06:23:27 PM 37.8622 -118.9850 263° West 460 529 40,000  Level Oakland Center
Sat 06:24:27 PM 37.8444 -119.1458 262° West 462 532 40,000  Level Oakland Center
Sat 06:25:28 PM 37.8267 -119.3053 262° West 459 528 40,000 -738 Level Oakland Center
Sat 06:26:29 PM 37.8078 -119.4658 262° West 461 531 38,500 -1,659 Descending Oakland Center
Sat 06:27:31 PM 37.7911 -119.6147 262° West 433 498 36,600 -1,623 Descending Oakland Center
Sat 06:28:31 PM 37.7736 -119.7617 261° West 423 487 35,200 -1,835 Descending Oakland Center
Sat 06:29:32 PM 37.7558 -119.9150 262° West 437 503 32,900 -2,164 Descending Oakland Center
Sat 06:30:33 PM 37.7364 -120.0803 262° West 471 542 30,800 -2,066 Descending Oakland Center
Sat 06:31:34 PM 37.7164 -120.2481 261° West 481 554 28,700 -2,115 Descending Oakland Center
Sat 06:32:35 PM 37.6961 -120.4167 261° West 483 556 26,500 -2,115 Descending Oakland Center
Sat 06:33:36 PM 37.6750 -120.5794 261° West 471 542 24,400 -2,168 Descending Oakland Center
Sat 06:34:34 PM 37.6500 -120.7500 260° West 450 518 22,200 -2,186 Descending Northern Cal TRACON
Sat 06:35:34 PM 37.6333 -120.9000 262° West 446 513 20,100 -1,950 Descending Northern Cal TRACON
Sat 06:36:34 PM 37.6167 -121.0667 263° West 437 503 18,300 -1,884 Descending Northern Cal TRACON
Sat 06:37:35 PM 37.6000 -121.2000 261° West 419 482 16,300 -1,835 Descending Northern Cal TRACON
Sat 06:38:35 PM 37.5833 -121.3500 262° West 385 443 14,600 -1,650 Descending Northern Cal TRACON
Sat 06:39:35 PM 37.5667 -121.4667 260° West 336 387 13,000 -1,500 Descending Northern Cal TRACON
Sat 06:40:35 PM 37.5500 -121.5667 258° West 307 353 11,600 -1,250 Descending Northern Cal TRACON
Sat 06:41:35 PM 37.5333 -121.6833 260° West 307 353 10,500 -1,250 Descending Northern Cal TRACON
Sat 06:42:35 PM 37.5167 -121.7833 258° West 299 344 9,100 -1,250 Descending Northern Cal TRACON
Sat 06:43:35 PM 37.4833 -121.8667 243° Southwest 294 338 8,000 -1,000 Descending Northern Cal TRACON
Sat 06:44:35 PM 37.4833 -121.9667 270° West 295 339 7,100 -1,300 Descending Northern Cal TRACON
Sat 06:45:35 PM 37.5167 -122.0500 297° West 278 320 5,400 -1,700 Descending Northern Cal TRACON
Sat 06:46:35 PM 37.5500 -122.1333 297° West 259 298 3,700 -1,450 Descending Northern Cal TRACON
Sat 06:47:35 PM 37.5667 -122.2167 284° West 228 262 2,500 -1,050 Descending Northern Cal TRACON
Sat 06:48:35 PM 37.5833 -122.2833 288° West 182 209 1,600 -900 Descending Northern Cal TRACON
Sat 06:49:35 PM 37.6000 -122.3333 293° West 130 150 700 -557 Descending Northern Cal TRACON
Sat 06:50:55 PM 37.6189 -122.3769 299° West 152 175 300 -300 Descending Oakland Center
Sat 06:52:00 PM 37.6167 -122.3667 322° Northwest  Level FlightAware Approximate

Login

Don't have an account? Register now (free) for customized features, flight alerts, and more!